Hovedside
METAR-TAF:

METAR-TAF

Lufthavner :

Ålesund, Norge

Ålesund lufthavn

breddegrad: 62-34N, lengdegrad: 006-07E, høyde over havet: 2 m

Gjeldene værobservasjon

Denne rapporten ble laget for 39 minutter siden, klokken 11:20 UTC
Vind 10 kt fra Sør-sørøst med vindkast opp mot 21 kt, skiftende mellom Øst og Sør
Temperatur 14°C
Luftfuktighet 55%
Trykk 1009 hPa
Sikt 10 km eller mer
ingen skyer under 1500 m og ingen bygeskyer

METAR: ENAL 221120Z 16010G21KT 100V170 CAVOK 14/05 Q1009

Tid: 13:59 (11:59 UTC)

Varsel

Denne rapporten ble laget for 59 minutter siden, klokken 11:00 UTC
Varsel gyldig fra 22. klokken 12 UTC til 22. klokken 21 UTC
Vind 12 kt fra Sør-sørøst
Sikt 10 km eller mer
ingen skyer under 1500 m og ingen bygeskyer
Midlertidig
fra 22. klokken 12 UTC til 22. klokken 21 UTC
Vind 6 kt fra skiftende retning

TAF: ENAL 221100Z 2212/2221 16012KT CAVOK TEMPO 2212/2221 VRB06KT

Værobservasjoner og værvarsel for over 4000 flyplasser (METAR- og TAF-rapporter).

Tilgjengelige stasjoner er representert av de røde og gule prikkene på kartet.

Hold musepekeren over prikken for å se navnet på stasjonen.

Klikk så for å se værobservasjoner og -varsler.

For å forandre kartet kan du klikke på den grønne knappen med svart kryss for å zoome inn, på den grønne knappen med strek for å zoome ut, eller på de grønne pilene for å se tilstøtende kart.


METAR-TAF: